createdAt,value
2023-04-29T00:01:23.916Z,80542.69
2023-04-29T00:03:05.341Z,80545.38
2023-04-29T00:04:46.891Z,80539.06
2023-04-29T00:06:28.532Z,80535.50
2023-04-29T00:08:10.116Z,80530.38
2023-04-29T00:09:51.604Z,80520.56
2023-04-29T00:11:33.007Z,80518.50
2023-04-29T00:13:14.297Z,80526.56
2023-04-29T00:14:55.582Z,80514.47
2023-04-29T00:16:36.877Z,80504.69
2023-04-29T00:18:18.243Z,80493.03
2023-04-29T00:19:59.531Z,80497.78
2023-04-29T00:21:40.803Z,80498.31
2023-04-29T00:23:22.110Z,80492.63
2023-04-29T00:25:03.365Z,80490.91
2023-04-29T00:26:44.650Z,80493.03
2023-04-29T00:28:25.978Z,80489.84
2023-04-29T00:30:07.338Z,80483.69
2023-04-29T00:31:48.675Z,80477.63
2023-04-29T00:33:29.996Z,80473.88
2023-04-29T00:35:11.300Z,80477.84
2023-04-29T00:36:52.643Z,80468.72
2023-04-29T00:38:33.930Z,80463.06
2023-04-29T00:40:15.280Z,80468.69
2023-04-29T00:41:56.651Z,80477.44
2023-04-29T00:43:37.944Z,80481.47
2023-04-29T00:45:19.242Z,80471.53
2023-04-29T00:47:00.554Z,80471.63
2023-04-29T00:48:41.852Z,80471.00
2023-04-29T00:50:23.135Z,80472.91
2023-04-29T00:52:04.428Z,80465.84
2023-04-29T00:53:46.593Z,80463.22
2023-04-29T00:55:29.242Z,80462.13
2023-04-29T00:57:10.576Z,80461.78
2023-04-29T00:58:51.895Z,80450.94
2023-04-29T01:00:33.170Z,80443.88
2023-04-29T01:02:14.483Z,80441.50
2023-04-29T01:03:55.965Z,80442.91
2023-04-29T01:05:37.335Z,80438.66
2023-04-29T01:07:18.640Z,80438.34
2023-04-29T01:08:59.971Z,80437.50
2023-04-29T01:10:41.296Z,80432.13
2023-04-29T01:12:22.591Z,80443.97
2023-04-29T01:14:03.927Z,80435.78
2023-04-29T01:15:45.256Z,80435.50
2023-04-29T01:17:26.604Z,80438.16
2023-04-29T01:19:07.914Z,80447.38
2023-04-29T01:20:49.286Z,80434.03
2023-04-29T01:22:30.556Z,80429.88
2023-04-29T01:24:11.866Z,80428.56
2023-04-29T01:25:53.203Z,80428.13
2023-04-29T01:27:34.539Z,80437.19
2023-04-29T01:29:15.870Z,80441.38
2023-04-29T01:30:57.217Z,80434.97
2023-04-29T01:32:38.559Z,80436.75
2023-04-29T01:34:19.920Z,80441.00
2023-04-29T01:36:01.260Z,80442.63
2023-04-29T01:37:42.549Z,80443.72
2023-04-29T01:39:23.854Z,80445.44
2023-04-29T01:41:05.526Z,80441.31
2023-04-29T01:42:46.805Z,80432.31
2023-04-29T01:44:28.101Z,80432.28
2023-04-29T01:46:09.441Z,80425.50
2023-04-29T01:47:50.782Z,80424.97
2023-04-29T01:49:32.060Z,80423.84
2023-04-29T01:51:13.348Z,80427.44
2023-04-29T01:52:54.605Z,80426.34
2023-04-29T01:54:35.876Z,80425.19
2023-04-29T01:56:17.159Z,80422.13
2023-04-29T01:57:58.416Z,80412.91
2023-04-29T01:59:39.714Z,80413.19
2023-04-29T02:01:21.092Z,80421.66
2023-04-29T02:03:02.493Z,80425.59
2023-04-29T02:04:43.894Z,80420.97
2023-04-29T02:06:25.248Z,80413.47
2023-04-29T02:08:06.626Z,80408.25
2023-04-29T02:09:47.890Z,80396.38
2023-04-29T02:11:29.166Z,80395.00
2023-04-29T02:13:10.504Z,80399.88
2023-04-29T02:14:51.799Z,80392.00
2023-04-29T02:16:33.196Z,80396.06
2023-04-29T02:18:14.596Z,80389.78
2023-04-29T02:19:55.985Z,80390.16
2023-04-29T02:21:37.295Z,80394.63
2023-04-29T02:23:18.620Z,80389.75
2023-04-29T02:24:59.904Z,80386.00
2023-04-29T02:26:41.227Z,80380.16
2023-04-29T02:28:22.573Z,80382.72
2023-04-29T02:30:03.856Z,80389.19
2023-04-29T02:31:45.187Z,80384.00
2023-04-29T02:33:26.560Z,80390.22
2023-04-29T02:35:07.873Z,80386.59
2023-04-29T02:36:49.264Z,80385.00
2023-04-29T02:38:30.543Z,80376.47
2023-04-29T02:40:11.843Z,80380.22
2023-04-29T02:41:53.117Z,80380.38
2023-04-29T02:43:34.459Z,80370.97
2023-04-29T02:45:15.743Z,80374.41
2023-04-29T02:46:57.067Z,80367.31
2023-04-29T02:48:38.407Z,80364.56
2023-04-29T02:50:19.676Z,80365.38
2023-04-29T02:52:00.985Z,80368.59
2023-04-29T02:53:42.273Z,80375.38
2023-04-29T02:55:23.596Z,80373.19
2023-04-29T02:57:04.887Z,80362.00
2023-04-29T02:58:46.177Z,80371.88
2023-04-29T03:00:27.526Z,80363.00
2023-04-29T03:02:08.862Z,80367.50
2023-04-29T03:03:50.335Z,80360.44
2023-04-29T03:05:31.807Z,80363.47
2023-04-29T03:07:13.080Z,80358.56
2023-04-29T03:08:54.360Z,80357.53
2023-04-29T03:10:35.667Z,80365.91
2023-04-29T03:12:17.002Z,80363.47
2023-04-29T03:13:58.285Z,80362.69
2023-04-29T03:15:39.589Z,80360.69
2023-04-29T03:17:20.872Z,80357.97
2023-04-29T03:19:02.177Z,80360.09
2023-04-29T03:20:43.488Z,80363.69
2023-04-29T03:22:24.758Z,80355.25
2023-04-29T03:24:06.130Z,80350.81
2023-04-29T03:25:47.450Z,80355.59
2023-04-29T03:27:28.771Z,80353.81
2023-04-29T03:29:10.095Z,80358.28
2023-04-29T03:30:51.422Z,80345.53
2023-04-29T03:32:32.701Z,80350.28
2023-04-29T03:34:14.013Z,80354.06
2023-04-29T03:35:55.378Z,80357.44
2023-04-29T03:37:36.661Z,80349.31
2023-04-29T03:39:17.924Z,80346.06
2023-04-29T03:40:59.219Z,80343.59
2023-04-29T03:42:40.501Z,80346.16
2023-04-29T03:44:21.757Z,80341.69
2023-04-29T03:46:03.112Z,80341.91
2023-04-29T03:47:44.491Z,80344.53
2023-04-29T03:49:25.844Z,80337.34
2023-04-29T03:51:07.152Z,80343.88
2023-04-29T03:52:48.446Z,80343.44
2023-04-29T03:54:29.776Z,80346.03
2023-04-29T03:56:11.089Z,80343.34
2023-04-29T03:57:52.400Z,80361.63
2023-04-29T03:59:33.691Z,80352.41
2023-04-29T04:01:14.980Z,80349.38
2023-04-29T04:02:56.511Z,80364.75
2023-04-29T04:04:38.027Z,80374.13
2023-04-29T04:06:19.417Z,80372.19
2023-04-29T04:08:00.770Z,80374.94
2023-04-29T04:09:42.099Z,80377.63
2023-04-29T04:11:23.382Z,80379.00
2023-04-29T04:13:04.689Z,80389.66
2023-04-29T04:14:45.980Z,80386.78
2023-04-29T04:16:27.340Z,80396.31
2023-04-29T04:18:08.690Z,80393.25
2023-04-29T04:19:50.254Z,80397.28
2023-04-29T04:21:31.700Z,80399.81
2023-04-29T04:23:13.008Z,80401.94
2023-04-29T04:24:54.300Z,80399.25
2023-04-29T04:26:35.617Z,80400.88
2023-04-29T04:28:16.945Z,80398.81
2023-04-29T04:29:58.250Z,80403.97
2023-04-29T04:31:39.581Z,80402.19
2023-04-29T04:33:20.959Z,80395.28
2023-04-29T04:35:02.299Z,80406.16
2023-04-29T04:36:43.622Z,80411.28
2023-04-29T04:38:24.929Z,80418.66
2023-04-29T04:40:06.226Z,80416.06
2023-04-29T04:41:47.520Z,80414.63
2023-04-29T04:43:28.800Z,80415.44
2023-04-29T04:45:10.114Z,80415.47
2023-04-29T04:46:51.412Z,80415.88
2023-04-29T04:48:32.680Z,80422.63
2023-04-29T04:50:13.962Z,80415.69
2023-04-29T04:51:55.255Z,80421.34
2023-04-29T04:53:36.516Z,80418.66
2023-04-29T04:55:17.822Z,80422.03
2023-04-29T04:56:59.120Z,80426.72
2023-04-29T04:58:40.418Z,80421.38
2023-04-29T05:00:21.724Z,80424.50
2023-04-29T05:02:03.052Z,80428.25
2023-04-29T05:03:44.621Z,80427.31
2023-04-29T05:05:26.006Z,80426.03
2023-04-29T05:07:07.329Z,80426.84
2023-04-29T05:08:48.608Z,80429.91
2023-04-29T05:10:29.902Z,80424.16
2023-04-29T05:12:11.187Z,80422.50
2023-04-29T05:13:52.477Z,80415.50
2023-04-29T05:15:33.780Z,80425.38
2023-04-29T05:17:15.056Z,80422.69
2023-04-29T05:18:56.366Z,80418.94
2023-04-29T05:20:37.660Z,80416.50
2023-04-29T05:22:18.942Z,80414.34
2023-04-29T05:24:00.226Z,80417.63
2023-04-29T05:25:41.599Z,80419.16
2023-04-29T05:27:22.862Z,80414.56
2023-04-29T05:29:04.137Z,80416.59
2023-04-29T05:30:45.482Z,80413.81
2023-04-29T05:32:26.812Z,80421.38
2023-04-29T05:34:08.104Z,80416.13
2023-04-29T05:35:49.445Z,80424.28
2023-04-29T05:37:30.792Z,80424.19
2023-04-29T05:39:12.144Z,80427.84
2023-04-29T05:40:53.464Z,80425.75
2023-04-29T05:42:34.782Z,80427.97
2023-04-29T05:44:16.102Z,80426.66
2023-04-29T05:45:57.562Z,80429.59
2023-04-29T05:47:39.002Z,80425.41
2023-04-29T05:49:20.395Z,80425.69
2023-04-29T05:51:01.688Z,80427.66
2023-04-29T05:52:42.992Z,80429.25
2023-04-29T05:54:24.260Z,80439.50
2023-04-29T05:56:05.529Z,80437.56
2023-04-29T05:57:46.826Z,80435.91
2023-04-29T05:59:28.103Z,80438.25
2023-04-29T06:01:09.392Z,80432.63
2023-04-29T06:02:57.993Z,80438.94
2023-04-29T06:04:40.983Z,80440.63
2023-04-29T06:06:22.722Z,80435.22
2023-04-29T06:08:04.121Z,80439.09
2023-04-29T06:09:45.462Z,80434.13
2023-04-29T06:11:26.781Z,80441.44
2023-04-29T06:13:08.081Z,80441.81
2023-04-29T06:14:49.374Z,80432.63
2023-04-29T06:18:12.034Z,80436.78
2023-04-29T06:19:53.574Z,80439.91
2023-04-29T06:21:35.099Z,80441.59
2023-04-29T06:23:16.437Z,80437.19
2023-04-29T06:24:57.751Z,80436.31
2023-04-29T06:26:39.085Z,80437.31
2023-04-29T06:28:20.417Z,80434.00
2023-04-29T06:30:01.705Z,80428.53
2023-04-29T06:31:43.181Z,80424.91
2023-04-29T06:33:24.521Z,80425.50
2023-04-29T06:35:05.835Z,80433.44
2023-04-29T06:36:47.222Z,80427.16
2023-04-29T06:38:28.509Z,80443.25
2023-04-29T06:40:09.776Z,80438.63
2023-04-29T06:41:51.050Z,80434.72
2023-04-29T06:43:32.345Z,80439.03
2023-04-29T06:45:13.692Z,80440.97
2023-04-29T06:46:55.048Z,80438.16
2023-04-29T06:48:36.381Z,80437.59
2023-04-29T06:50:17.747Z,80438.97
2023-04-29T06:51:59.053Z,80440.41
2023-04-29T06:53:40.317Z,80438.03
2023-04-29T06:55:21.648Z,80434.59
2023-04-29T06:57:02.955Z,80438.28
2023-04-29T06:58:44.232Z,80433.84
2023-04-29T07:00:25.679Z,80440.59
2023-04-29T07:02:07.096Z,80436.91
2023-04-29T07:03:48.532Z,80443.22
2023-04-29T07:05:30.022Z,80447.13
2023-04-29T07:07:11.341Z,80447.16
2023-04-29T07:08:53.756Z,80440.00
2023-04-29T07:10:36.782Z,80445.50
2023-04-29T07:12:18.110Z,80445.72
2023-04-29T07:13:59.407Z,80443.97
2023-04-29T07:15:40.676Z,80456.22
2023-04-29T07:17:22.056Z,80447.31
2023-04-29T07:19:03.367Z,80446.13
2023-04-29T07:20:44.654Z,80455.09
2023-04-29T07:22:26.043Z,80449.19
2023-04-29T07:24:07.365Z,80458.56
2023-04-29T07:25:48.680Z,80464.03
2023-04-29T07:27:29.987Z,80467.91
2023-04-29T07:29:11.264Z,80465.53
2023-04-29T07:30:52.546Z,80470.84
2023-04-29T07:32:33.981Z,80478.53
2023-04-29T07:34:15.302Z,80465.66
2023-04-29T07:35:56.616Z,80467.78
2023-04-29T07:37:37.910Z,80470.44
2023-04-29T07:39:19.188Z,80467.16
2023-04-29T07:41:00.497Z,80468.34
2023-04-29T07:42:41.817Z,80468.34
2023-04-29T07:44:23.110Z,80483.00
2023-04-29T07:46:04.419Z,80472.88
2023-04-29T07:47:45.789Z,80473.91
2023-04-29T07:49:27.120Z,80470.19
2023-04-29T07:51:08.429Z,80473.34
2023-04-29T07:52:49.721Z,80473.66
2023-04-29T07:54:30.992Z,80478.34
2023-04-29T07:56:12.322Z,80486.69
2023-04-29T07:57:53.646Z,80486.66
2023-04-29T07:59:34.986Z,80484.47
2023-04-29T08:01:16.404Z,80484.72
2023-04-29T08:02:58.055Z,80484.56
2023-04-29T08:04:39.659Z,80483.13
2023-04-29T08:06:21.305Z,80483.31
2023-04-29T08:08:02.590Z,80475.78
2023-04-29T08:09:43.869Z,80473.00
2023-04-29T08:11:25.210Z,80476.97
2023-04-29T08:13:06.511Z,80477.66
2023-04-29T08:14:47.772Z,80464.25
2023-04-29T08:16:29.241Z,80472.84
2023-04-29T08:18:10.708Z,80477.31
2023-04-29T08:19:52.041Z,80471.31
2023-04-29T08:21:33.342Z,80466.34
2023-04-29T08:23:14.655Z,80471.22
2023-04-29T08:24:55.943Z,80473.47
2023-04-29T08:26:37.258Z,80481.28
2023-04-29T08:28:18.611Z,80474.56
2023-04-29T08:29:59.894Z,80473.75
2023-04-29T08:31:41.264Z,80475.13
2023-04-29T08:33:22.621Z,80471.22
2023-04-29T08:35:03.933Z,80467.13
2023-04-29T08:36:45.629Z,80463.66
2023-04-29T08:38:26.945Z,80458.56
2023-04-29T08:40:08.246Z,80466.56
2023-04-29T08:41:49.573Z,80460.19
2023-04-29T08:43:30.856Z,80467.03
2023-04-29T08:45:12.167Z,80472.66
2023-04-29T08:46:53.447Z,80466.38
2023-04-29T08:48:34.875Z,80465.84
2023-04-29T08:50:16.214Z,80468.06
2023-04-29T08:51:57.513Z,80466.00
2023-04-29T08:53:38.809Z,80464.84
2023-04-29T08:55:20.154Z,80469.47
2023-04-29T08:57:01.482Z,80466.28
2023-04-29T08:58:42.799Z,80466.66
2023-04-29T09:00:24.112Z,80464.25
2023-04-29T09:02:05.411Z,80462.00
2023-04-29T09:03:46.965Z,80465.94
2023-04-29T09:05:28.421Z,80456.03
2023-04-29T09:07:09.865Z,80455.25
2023-04-29T09:08:51.149Z,80453.59
2023-04-29T09:10:32.433Z,80449.09
2023-04-29T09:12:13.734Z,80450.25
2023-04-29T09:13:55.044Z,80446.41
2023-04-29T09:15:36.385Z,80446.72
2023-04-29T09:17:17.794Z,80440.94
2023-04-29T09:18:59.243Z,80444.75
2023-04-29T09:20:40.549Z,80441.88
2023-04-29T09:22:21.871Z,80446.88
2023-04-29T09:24:03.146Z,80454.31
2023-04-29T09:25:44.499Z,80447.03
2023-04-29T09:27:25.784Z,80455.28
2023-04-29T09:29:07.105Z,80458.31
2023-04-29T09:30:48.455Z,80456.22
2023-04-29T09:32:29.759Z,80453.13
2023-04-29T09:34:11.091Z,80450.66
2023-04-29T09:35:52.408Z,80448.44
2023-04-29T09:37:33.678Z,80461.13
2023-04-29T09:39:15.009Z,80450.97
2023-04-29T09:40:59.656Z,80449.19
2023-04-29T09:42:42.482Z,80451.03
2023-04-29T09:44:23.807Z,80455.97
2023-04-29T09:46:05.199Z,80459.72
2023-04-29T09:47:46.580Z,80452.06
2023-04-29T09:49:27.914Z,80453.72
2023-04-29T09:51:09.219Z,80457.75
2023-04-29T09:52:51.336Z,80452.38
2023-04-29T09:54:32.630Z,80443.34
2023-04-29T09:56:13.947Z,80453.47
2023-04-29T09:57:55.227Z,80438.47
2023-04-29T09:59:36.536Z,80446.31
2023-04-29T10:01:17.973Z,80441.28
2023-04-29T10:02:59.392Z,80441.84
2023-04-29T10:04:40.822Z,80442.44
2023-04-29T10:06:22.283Z,80444.53
2023-04-29T10:08:03.591Z,80441.84
2023-04-29T10:09:44.880Z,80450.25
2023-04-29T10:11:26.183Z,80447.88
2023-04-29T10:13:07.467Z,80441.41
2023-04-29T10:14:48.743Z,80450.16
2023-04-29T10:16:30.398Z,80445.13
2023-04-29T10:18:11.910Z,80453.13
2023-04-29T10:19:53.224Z,80455.78
2023-04-29T10:21:34.511Z,80450.25
2023-04-29T10:23:15.840Z,80439.69
2023-04-29T10:24:57.138Z,80445.16
2023-04-29T10:26:38.539Z,80442.13
2023-04-29T10:28:19.901Z,80446.63
2023-04-29T10:30:01.203Z,80442.88
2023-04-29T10:31:42.513Z,80439.91
2023-04-29T10:33:23.893Z,80432.75
2023-04-29T10:35:05.283Z,80427.19
2023-04-29T10:36:46.554Z,80424.84
2023-04-29T10:38:27.870Z,80428.72
2023-04-29T10:40:09.239Z,80438.16
2023-04-29T10:41:50.541Z,80442.66
2023-04-29T10:43:31.855Z,80448.97
2023-04-29T10:45:13.172Z,80437.47
2023-04-29T10:46:54.510Z,80438.06
2023-04-29T10:48:35.878Z,80432.84
2023-04-29T10:50:17.155Z,80430.50
2023-04-29T10:51:58.471Z,80420.31
2023-04-29T10:53:39.756Z,80419.28
2023-04-29T10:55:21.057Z,80425.53
2023-04-29T10:57:02.382Z,80431.91
2023-04-29T10:58:43.669Z,80425.34
2023-04-29T11:00:24.970Z,80424.00
2023-04-29T11:02:06.290Z,80422.28
2023-04-29T11:03:47.962Z,80409.69
2023-04-29T11:05:29.458Z,80413.59
2023-04-29T11:07:10.757Z,80405.31
2023-04-29T11:08:52.089Z,80405.19
2023-04-29T11:10:33.413Z,80408.19
2023-04-29T11:12:14.733Z,80406.88
2023-04-29T11:13:56.115Z,80407.81
2023-04-29T11:15:37.480Z,80404.28
2023-04-29T11:17:18.797Z,80408.81
2023-04-29T11:19:00.125Z,80406.91
2023-04-29T11:20:41.428Z,80413.34
2023-04-29T11:22:22.746Z,80399.41
2023-04-29T11:24:04.009Z,80397.91
2023-04-29T11:25:45.325Z,80402.03
2023-04-29T11:27:26.619Z,80402.41
2023-04-29T11:29:07.912Z,80406.75
2023-04-29T11:30:49.243Z,80407.09
2023-04-29T11:32:30.695Z,80414.41
2023-04-29T11:34:12.220Z,80410.59
2023-04-29T11:35:53.531Z,80421.81
2023-04-29T11:37:34.801Z,80411.59
2023-04-29T11:39:16.092Z,80410.84
2023-04-29T11:40:57.426Z,80412.78
2023-04-29T11:42:38.718Z,80411.47
2023-04-29T11:44:19.993Z,80408.75
2023-04-29T11:46:01.339Z,80416.69
2023-04-29T11:47:42.751Z,80414.66
2023-04-29T11:49:24.025Z,80416.16
2023-04-29T11:51:05.363Z,80414.69
2023-04-29T11:52:46.654Z,80416.88
2023-04-29T11:54:27.956Z,80406.97
2023-04-29T11:56:09.230Z,80411.31
2023-04-29T11:57:50.539Z,80414.03
2023-04-29T11:59:31.821Z,80413.44
2023-04-29T12:01:13.092Z,80413.50
2023-04-29T12:02:54.595Z,80414.50
2023-04-29T12:04:36.172Z,80416.63
2023-04-29T12:06:17.576Z,80413.22
2023-04-29T12:07:58.898Z,80414.16
2023-04-29T12:09:40.188Z,80421.28
2023-04-29T12:11:21.476Z,80412.22
2023-04-29T12:13:02.805Z,80413.84
2023-04-29T12:14:44.172Z,80411.56
2023-04-29T12:16:25.486Z,80405.19
2023-04-29T12:18:06.845Z,80406.00
2023-04-29T12:19:48.189Z,80409.34
2023-04-29T12:21:29.453Z,80404.00
2023-04-29T12:23:10.788Z,80406.53
2023-04-29T12:24:52.327Z,80401.38
2023-04-29T12:26:34.118Z,80409.03
2023-04-29T12:28:15.404Z,80412.22
2023-04-29T12:29:56.754Z,80421.88
2023-04-29T12:31:38.087Z,80413.09
2023-04-29T12:33:19.384Z,80415.56
2023-04-29T12:35:00.721Z,80419.03
2023-04-29T12:36:42.043Z,80417.41
2023-04-29T12:38:23.622Z,80415.50
2023-04-29T12:40:05.186Z,80415.63
2023-04-29T12:41:46.469Z,80413.00
2023-04-29T12:43:27.791Z,80418.03
2023-04-29T12:45:09.816Z,80413.78
2023-04-29T12:46:51.489Z,80415.13
2023-04-29T12:48:33.369Z,80416.44
2023-04-29T12:50:15.088Z,80423.16
2023-04-29T12:51:56.370Z,80414.81
2023-04-29T12:53:37.674Z,80418.56
2023-04-29T12:55:18.941Z,80412.53
2023-04-29T12:57:00.332Z,80412.91
2023-04-29T12:58:41.736Z,80415.44
2023-04-29T13:00:23.330Z,80415.25
2023-04-29T13:02:05.024Z,80416.38
2023-04-29T13:03:47.097Z,80413.22
2023-04-29T13:05:29.098Z,80411.75
2023-04-29T13:07:10.710Z,80408.41
2023-04-29T13:08:52.429Z,80416.03
2023-04-29T13:10:34.054Z,80405.31
2023-04-29T13:12:15.551Z,80408.94
2023-04-29T13:13:57.341Z,80403.63
2023-04-29T13:15:38.894Z,80403.41
2023-04-29T13:17:20.193Z,80401.97
2023-04-29T13:19:17.016Z,80391.56
2023-04-29T13:21:03.676Z,80403.38
2023-04-29T13:22:44.972Z,80406.47
2023-04-29T13:24:26.299Z,80409.25
2023-04-29T13:26:07.612Z,80407.69
2023-04-29T13:27:49.714Z,80404.84
2023-04-29T13:29:31.274Z,80404.00
2023-04-29T13:31:12.545Z,80403.78
2023-04-29T13:32:56.693Z,80406.88
2023-04-29T13:34:44.971Z,80405.72
2023-04-29T13:36:26.514Z,80411.41
2023-04-29T13:38:07.837Z,80399.31
2023-04-29T13:39:56.840Z,80405.78
2023-04-29T13:41:42.207Z,80400.81
2023-04-29T13:43:36.606Z,80401.31
2023-04-29T13:45:20.437Z,80398.13
2023-04-29T13:47:02.093Z,80406.22
2023-04-29T13:49:16.093Z,80400.63
2023-04-29T13:51:13.791Z,80400.28
2023-04-29T13:57:04.713Z,80398.25
2023-04-29T13:58:56.212Z,80394.09
2023-04-29T14:03:48.134Z,80409.25
2023-04-29T14:05:29.924Z,80412.97
2023-04-29T14:07:11.777Z,80418.72
2023-04-29T14:08:53.307Z,80414.28
2023-04-29T14:10:34.765Z,80415.06
2023-04-29T14:12:16.261Z,80416.38
2023-04-29T14:13:57.628Z,80427.88
2023-04-29T14:15:39.175Z,80419.00
2023-04-29T14:17:20.703Z,80423.13
2023-04-29T14:19:03.844Z,80427.59
2023-04-29T14:20:45.452Z,80426.16
2023-04-29T14:22:26.978Z,80425.72
2023-04-29T14:24:08.536Z,80418.22
2023-04-29T14:25:49.859Z,80413.28
2023-04-29T14:27:31.429Z,80415.16
2023-04-29T14:29:12.967Z,80414.16
2023-04-29T14:30:54.550Z,80413.50
2023-04-29T14:32:36.121Z,80416.06
2023-04-29T14:34:17.466Z,80410.25
2023-04-29T14:35:58.752Z,80419.88
2023-04-29T14:37:40.402Z,80416.25
2023-04-29T14:39:22.039Z,80413.34
2023-04-29T14:41:03.315Z,80415.91
2023-04-29T14:42:44.825Z,80418.00
2023-04-29T14:44:26.410Z,80424.88
2023-04-29T14:46:07.949Z,80420.53
2023-04-29T14:47:49.526Z,80421.75
2023-04-29T14:49:31.802Z,80418.56
2023-04-29T14:51:13.476Z,80425.50
2023-04-29T14:52:55.159Z,80420.75
2023-04-29T14:54:36.717Z,80431.97
2023-04-29T14:56:18.201Z,80431.97
2023-04-29T14:57:59.560Z,80435.56
2023-04-29T14:59:40.864Z,80427.72
2023-04-29T15:01:22.968Z,80436.88
2023-04-29T15:03:04.873Z,80428.84
2023-04-29T15:04:46.614Z,80429.44
2023-04-29T15:06:28.006Z,80424.78
2023-04-29T15:08:09.316Z,80431.97
2023-04-29T15:09:50.886Z,80426.28
2023-04-29T15:11:32.413Z,80431.47
2023-04-29T15:13:13.921Z,80425.09
2023-04-29T15:14:55.825Z,80430.69
2023-04-29T15:16:37.381Z,80433.34
2023-04-29T15:18:18.728Z,80427.47
2023-04-29T15:20:00.349Z,80431.97
2023-04-29T15:21:41.900Z,80437.91
2023-04-29T15:23:23.436Z,80440.41
2023-04-29T15:25:05.063Z,80436.63
2023-04-29T15:26:46.644Z,80431.56
2023-04-29T15:28:28.038Z,80432.94
2023-04-29T15:30:09.363Z,80441.34
2023-04-29T15:31:50.752Z,80436.31
2023-04-29T15:33:32.073Z,80437.25
2023-04-29T15:35:13.544Z,80432.13
2023-04-29T15:36:54.947Z,80428.28
2023-04-29T15:38:36.454Z,80430.94
2023-04-29T15:40:17.967Z,80434.91
2023-04-29T15:41:59.398Z,80435.59
2023-04-29T15:43:40.730Z,80439.19
2023-04-29T15:45:22.098Z,80432.84
2023-04-29T15:47:03.413Z,80440.66
2023-04-29T15:48:44.724Z,80439.38
2023-04-29T15:50:26.011Z,80445.09
2023-04-29T15:52:07.292Z,80437.00
2023-04-29T15:53:49.815Z,80440.88
2023-04-29T15:55:31.088Z,80441.63
2023-04-29T15:57:12.375Z,80456.78
2023-04-29T15:58:53.674Z,80452.84
2023-04-29T16:00:34.993Z,80457.28
2023-04-29T16:02:16.944Z,80450.78
2023-04-29T16:03:58.553Z,80461.56
2023-04-29T16:05:40.164Z,80454.88
2023-04-29T16:07:21.813Z,80457.91
2023-04-29T16:09:03.270Z,80463.75
2023-04-29T16:10:44.584Z,80462.09
2023-04-29T16:12:26.030Z,80461.63
2023-04-29T16:14:07.296Z,80460.41
2023-04-29T16:15:48.564Z,80464.88
2023-04-29T16:17:29.920Z,80462.13
2023-04-29T16:19:11.968Z,80469.31
2023-04-29T16:20:53.427Z,80470.75
2023-04-29T16:22:34.745Z,80462.91
2023-04-29T16:24:16.046Z,80468.44
2023-04-29T16:25:57.762Z,80465.81
2023-04-29T16:27:41.922Z,80472.06
2023-04-29T16:29:23.264Z,80469.84
2023-04-29T16:31:04.571Z,80471.09
2023-04-29T16:32:47.146Z,80468.50
2023-04-29T16:34:31.446Z,80472.09
2023-04-29T16:36:12.731Z,80477.19
2023-04-29T16:37:54.100Z,80475.50
2023-04-29T16:39:35.636Z,80468.19
2023-04-29T16:41:17.143Z,80478.41
2023-04-29T16:42:58.514Z,80465.22
2023-04-29T16:44:40.004Z,80467.84
2023-04-29T16:46:21.535Z,80471.84
2023-04-29T16:48:03.141Z,80468.50
2023-04-29T16:49:44.819Z,80468.66
2023-04-29T16:51:26.230Z,80467.19
2023-04-29T16:53:07.548Z,80466.84
2023-04-29T16:54:48.834Z,80473.16
2023-04-29T16:56:30.158Z,80461.81
2023-04-29T16:58:12.248Z,80470.63
2023-04-29T16:59:54.131Z,80472.16
2023-04-29T17:01:35.741Z,80468.66
2023-04-29T17:03:17.155Z,80464.19
2023-04-29T17:04:58.935Z,80467.13
2023-04-29T17:06:40.714Z,80460.75
2023-04-29T17:08:22.267Z,80454.31
2023-04-29T17:10:03.573Z,80457.16
2023-04-29T17:11:44.912Z,80445.88
2023-04-29T17:13:26.218Z,80455.00
2023-04-29T17:15:08.100Z,80451.16
2023-04-29T17:16:49.648Z,80444.75
2023-04-29T17:18:31.290Z,80435.38
2023-04-29T17:20:12.645Z,80439.50
2023-04-29T17:21:54.009Z,80437.56
2023-04-29T17:23:35.292Z,80432.56
2023-04-29T17:25:16.585Z,80430.38
2023-04-29T17:26:57.880Z,80425.72
2023-04-29T17:28:39.176Z,80420.97
2023-04-29T17:30:20.467Z,80434.44
2023-04-29T17:32:01.795Z,80427.41
2023-04-29T17:33:43.404Z,80427.50
2023-04-29T17:35:24.911Z,80426.63
2023-04-29T17:37:06.519Z,80423.09
2023-04-29T17:38:48.189Z,80421.75
2023-04-29T17:40:29.592Z,80420.75
2023-04-29T17:42:10.879Z,80418.47
2023-04-29T17:43:52.183Z,80420.88
2023-04-29T17:45:33.554Z,80416.66
2023-04-29T17:47:14.884Z,80418.47
2023-04-29T17:48:56.339Z,80414.16
2023-04-29T17:50:37.658Z,80416.38
2023-04-29T17:52:19.034Z,80419.16
2023-04-29T17:54:00.980Z,80412.50
2023-04-29T17:55:42.568Z,80415.03
2023-04-29T17:57:23.880Z,80417.88
2023-04-29T17:59:05.184Z,80411.19
2023-04-29T18:00:46.570Z,80413.72
2023-04-29T18:02:28.029Z,80411.56
2023-04-29T18:04:09.416Z,80413.41
2023-04-29T18:05:50.863Z,80420.50
2023-04-29T18:07:32.271Z,80427.75
2023-04-29T18:09:13.610Z,80420.13
2023-04-29T18:10:54.877Z,80418.25
2023-04-29T18:12:36.176Z,80421.25
2023-04-29T18:14:17.443Z,80415.38
2023-04-29T18:15:58.729Z,80418.44
2023-04-29T18:17:40.120Z,80409.69
2023-04-29T18:19:21.442Z,80418.00
2023-04-29T18:21:02.951Z,80420.88
2023-04-29T18:22:44.528Z,80421.66
2023-04-29T18:24:25.883Z,80416.75
2023-04-29T18:26:07.163Z,80414.84
2023-04-29T18:27:48.430Z,80407.19
2023-04-29T18:29:29.747Z,80407.81
2023-04-29T18:31:11.026Z,80416.75
2023-04-29T18:32:52.348Z,80409.06
2023-04-29T18:34:33.661Z,80416.91
2023-04-29T18:36:14.963Z,80420.38
2023-04-29T18:37:56.924Z,80416.47
2023-04-29T18:39:38.583Z,80418.31
2023-04-29T18:41:19.868Z,80416.28
2023-04-29T18:43:01.140Z,80419.06
2023-04-29T18:44:42.481Z,80412.75
2023-04-29T18:46:23.829Z,80410.69
2023-04-29T18:48:05.202Z,80414.63
2023-04-29T18:49:46.572Z,80412.44
2023-04-29T18:51:27.873Z,80414.03
2023-04-29T18:53:09.182Z,80414.63
2023-04-29T18:54:50.501Z,80410.44
2023-04-29T18:56:31.818Z,80406.41
2023-04-29T18:58:13.094Z,80414.47
2023-04-29T18:59:54.565Z,80407.91
2023-04-29T19:01:36.122Z,80402.22
2023-04-29T19:03:18.087Z,80402.63
2023-04-29T19:05:00.355Z,80398.69
2023-04-29T19:06:42.255Z,80398.78
2023-04-29T19:08:23.677Z,80405.13
2023-04-29T19:10:05.334Z,80399.44
2023-04-29T19:11:46.953Z,80395.56
2023-04-29T19:13:28.350Z,80394.50
2023-04-29T19:15:09.672Z,80389.50
2023-04-29T19:16:50.972Z,80400.81
2023-04-29T19:18:32.275Z,80397.22
2023-04-29T19:20:13.642Z,80402.91
2023-04-29T19:21:55.547Z,80397.22
2023-04-29T19:23:37.040Z,80405.47
2023-04-29T19:25:18.352Z,80403.66
2023-04-29T19:26:59.631Z,80410.09
2023-04-29T19:28:41.265Z,80406.63
2023-04-29T19:30:23.032Z,80405.75
2023-04-29T19:32:04.581Z,80404.94
2023-04-29T19:33:46.091Z,80412.50
2023-04-29T19:35:27.647Z,80413.69
2023-04-29T19:37:08.917Z,80407.00
2023-04-29T19:38:50.494Z,80412.03
2023-04-29T19:40:32.073Z,80412.19
2023-04-29T19:42:13.346Z,80417.50
2023-04-29T19:43:54.683Z,80425.53
2023-04-29T19:45:35.990Z,80420.94
2023-04-29T19:47:17.296Z,80428.94
2023-04-29T19:48:59.290Z,80436.91
2023-04-29T19:50:41.101Z,80436.03
2023-04-29T19:52:22.522Z,80439.72
2023-04-29T19:54:03.960Z,80442.78
2023-04-29T19:55:45.403Z,80447.38
2023-04-29T19:57:26.720Z,80444.69
2023-04-29T19:59:07.985Z,80441.25
2023-04-29T20:00:49.607Z,80445.19
2023-04-29T20:02:31.229Z,80446.91